Deba, Spain
Current Conditions -  °F | °C
As of 7:30 PM on Sunday 23 Nov 2014 (Local Time) from LESO Reporting Station
Scattered Clouds Scattered Clouds  
Wind Chill: 64°   Ceiling: Unl
Heat Index: 64°   Visibility: 6mi
Dew Point: 57°   Wind: 3mph
Humidity: 77%   Direction: NA
Pressure: 29.94"   Gusts: NA
Location:  43.3°N, 2.35°W
Report Text: LESO 231830Z VRB03KT 9999 SCT009 18/14 Q1014
Loading
Personal Weather Stations






























Interactive Weather Map New forecast layout! Learn more

10-Day Weather Forecast

Advertisements
Track Severe Weather on mobile